createdAt,value
2023-04-01T00:00:55.984Z,949.00
2023-04-01T00:01:55.942Z,947.00
2023-04-01T00:02:56.024Z,948.00
2023-04-01T00:03:56.046Z,956.00
2023-04-01T00:04:55.978Z,959.00
2023-04-01T00:05:55.950Z,961.00
2023-04-01T00:06:55.961Z,954.00
2023-04-01T00:07:55.957Z,962.00
2023-04-01T00:08:55.971Z,950.00
2023-04-01T00:09:55.968Z,961.00
2023-04-01T00:10:55.997Z,960.00
2023-04-01T00:11:55.960Z,947.00
2023-04-01T00:12:55.968Z,931.00
2023-04-01T00:13:55.974Z,943.00
2023-04-01T00:14:55.990Z,954.00
2023-04-01T00:15:56.262Z,936.00
2023-04-01T00:16:56.031Z,939.00
2023-04-01T00:17:56.042Z,945.00
2023-04-01T00:18:56.017Z,947.00
2023-04-01T00:19:56.002Z,951.00
2023-04-01T00:20:56.018Z,951.00
2023-04-01T00:21:56.001Z,949.00
2023-04-01T00:22:56.014Z,950.00
2023-04-01T00:23:56.011Z,954.00
2023-04-01T00:24:56.011Z,946.00
2023-04-01T00:25:56.015Z,942.00
2023-04-01T00:26:56.025Z,935.00
2023-04-01T00:27:56.025Z,937.00
2023-04-01T00:28:56.022Z,917.00
2023-04-01T00:29:56.021Z,913.00
2023-04-01T00:30:56.009Z,914.00
2023-04-01T00:31:56.075Z,913.00
2023-04-01T00:32:56.088Z,901.00
2023-04-01T00:33:55.945Z,906.00
2023-04-01T00:34:55.937Z,890.00
2023-04-01T00:35:55.921Z,895.00
2023-04-01T00:36:55.893Z,884.00
2023-04-01T00:37:55.882Z,881.00
2023-04-01T00:38:55.880Z,868.00
2023-04-01T00:39:55.855Z,863.00
2023-04-01T00:40:55.836Z,872.00
2023-04-01T00:41:55.805Z,873.00
2023-04-01T00:42:55.815Z,877.00
2023-04-01T00:43:55.777Z,876.00
2023-04-01T00:44:55.786Z,883.00
2023-04-01T00:45:55.753Z,880.00
2023-04-01T00:46:55.767Z,880.00
2023-04-01T00:47:55.772Z,879.00
2023-04-01T00:48:55.713Z,882.00
2023-04-01T00:49:55.737Z,884.00
2023-04-01T00:50:55.662Z,875.00
2023-04-01T00:51:55.653Z,887.00
2023-04-01T00:52:55.659Z,875.00
2023-04-01T00:53:55.637Z,870.00
2023-04-01T00:54:55.659Z,866.00
2023-04-01T00:55:55.657Z,871.00
2023-04-01T00:56:55.702Z,878.00
2023-04-01T00:57:55.666Z,858.00
2023-04-01T00:58:55.666Z,873.00
2023-04-01T00:59:55.691Z,886.00
2023-04-01T01:00:55.709Z,881.00
2023-04-01T01:01:55.777Z,879.00
2023-04-01T01:02:55.731Z,882.00
2023-04-01T01:03:55.744Z,873.00
2023-04-01T01:04:55.709Z,874.00
2023-04-01T01:05:55.710Z,887.00
2023-04-01T01:06:55.789Z,895.00
2023-04-01T01:07:55.731Z,897.00
2023-04-01T01:08:55.732Z,888.00
2023-04-01T01:09:55.753Z,893.00
2023-04-01T01:10:55.767Z,907.00
2023-04-01T01:11:55.749Z,900.00
2023-04-01T01:12:55.734Z,900.00
2023-04-01T01:13:55.753Z,892.00
2023-04-01T01:14:55.739Z,903.00
2023-04-01T01:15:55.740Z,901.00
2023-04-01T01:16:55.922Z,890.00
2023-04-01T01:17:55.815Z,903.00
2023-04-01T01:18:55.739Z,913.00
2023-04-01T01:19:55.754Z,894.00
2023-04-01T01:20:55.769Z,900.00
2023-04-01T01:21:55.772Z,905.00
2023-04-01T01:22:55.774Z,900.00
2023-04-01T01:23:55.770Z,892.00
2023-04-01T01:24:55.778Z,899.00
2023-04-01T01:25:55.803Z,888.00
2023-04-01T01:26:55.787Z,887.00
2023-04-01T01:27:55.835Z,879.00
2023-04-01T01:28:55.794Z,862.00
2023-04-01T01:29:55.816Z,857.00
2023-04-01T01:30:55.879Z,865.00
2023-04-01T01:31:55.840Z,873.00
2023-04-01T01:32:55.964Z,876.00
2023-04-01T01:33:55.905Z,880.00
2023-04-01T01:34:55.943Z,862.00
2023-04-01T01:35:55.947Z,862.00
2023-04-01T01:36:55.945Z,867.00
2023-04-01T01:37:55.964Z,866.00
2023-04-01T01:38:55.976Z,847.00
2023-04-01T01:39:55.991Z,840.00
2023-04-01T01:40:55.997Z,851.00
2023-04-01T01:41:56.003Z,843.00
2023-04-01T01:42:56.010Z,863.00
2023-04-01T01:43:56.027Z,855.00
2023-04-01T01:44:56.044Z,849.00
2023-04-01T01:45:56.074Z,851.00
2023-04-01T01:46:56.056Z,844.00
2023-04-01T01:47:56.096Z,860.00
2023-04-01T01:48:56.070Z,855.00
2023-04-01T01:49:56.091Z,860.00
2023-04-01T01:50:56.073Z,860.00
2023-04-01T01:51:56.078Z,860.00
2023-04-01T01:52:56.053Z,860.00
2023-04-01T01:53:56.044Z,859.00
2023-04-01T01:54:56.047Z,873.00
2023-04-01T01:55:56.013Z,846.00
2023-04-01T01:56:56.048Z,858.00
2023-04-01T01:57:55.994Z,862.00
2023-04-01T01:58:55.979Z,858.00
2023-04-01T01:59:55.993Z,846.00
2023-04-01T02:00:55.984Z,856.00
2023-04-01T02:01:56.038Z,856.00
2023-04-01T02:02:55.970Z,859.00
2023-04-01T02:03:55.954Z,860.00
2023-04-01T02:04:55.971Z,861.00
2023-04-01T02:05:55.937Z,855.00
2023-04-01T02:06:55.923Z,863.00
2023-04-01T02:07:55.904Z,861.00
2023-04-01T02:08:55.892Z,859.00
2023-04-01T02:09:55.897Z,866.00
2023-04-01T02:10:55.865Z,871.00
2023-04-01T02:11:55.845Z,861.00
2023-04-01T02:12:55.861Z,854.00
2023-04-01T02:13:55.838Z,861.00
2023-04-01T02:14:55.866Z,836.00
2023-04-01T02:15:55.881Z,840.00
2023-04-01T02:16:55.873Z,839.00
2023-04-01T02:17:55.958Z,839.00
2023-04-01T02:18:55.915Z,843.00
2023-04-01T02:19:55.960Z,842.00
2023-04-01T02:20:55.957Z,839.00
2023-04-01T02:21:55.996Z,842.00
2023-04-01T02:22:56.019Z,850.00
2023-04-01T02:23:56.036Z,838.00
2023-04-01T02:24:56.043Z,854.00
2023-04-01T02:25:56.053Z,850.00
2023-04-01T02:26:56.064Z,847.00
2023-04-01T02:27:56.102Z,841.00
2023-04-01T02:28:56.088Z,850.00
2023-04-01T02:29:56.110Z,849.00
2023-04-01T02:30:56.135Z,852.00
2023-04-01T02:31:56.150Z,846.00
2023-04-01T02:32:56.223Z,856.00
2023-04-01T02:33:56.166Z,862.00
2023-04-01T02:34:56.191Z,845.00
2023-04-01T02:35:56.247Z,859.00
2023-04-01T02:36:56.229Z,867.00
2023-04-01T02:37:56.315Z,870.00
2023-04-01T02:38:56.332Z,870.00
2023-04-01T02:39:56.375Z,862.00
2023-04-01T02:40:56.418Z,870.00
2023-04-01T02:41:56.495Z,866.00
2023-04-01T02:42:56.508Z,866.00
2023-04-01T02:43:56.554Z,866.00
2023-04-01T02:44:56.619Z,893.00
2023-04-01T02:45:56.684Z,880.00
2023-04-01T02:46:56.725Z,878.00
2023-04-01T02:47:56.778Z,876.00
2023-04-01T02:48:56.792Z,867.00
2023-04-01T02:49:56.830Z,870.00
2023-04-01T02:50:56.863Z,861.00
2023-04-01T02:51:56.855Z,879.00
2023-04-01T02:52:56.843Z,880.00
2023-04-01T02:53:56.849Z,880.00
2023-04-01T02:54:56.819Z,877.00
2023-04-01T02:55:56.816Z,877.00
2023-04-01T02:56:56.841Z,883.00
2023-04-01T02:57:56.810Z,873.00
2023-04-01T02:58:56.774Z,875.00
2023-04-01T02:59:56.768Z,872.00
2023-04-01T03:00:56.817Z,870.00
2023-04-01T03:01:56.777Z,871.00
2023-04-01T03:02:56.925Z,871.00
2023-04-01T03:03:56.714Z,872.00
2023-04-01T03:04:56.717Z,860.00
2023-04-01T03:05:56.701Z,866.00
2023-04-01T03:06:56.682Z,867.00
2023-04-01T03:07:56.668Z,868.00
2023-04-01T03:08:56.648Z,869.00
2023-04-01T03:09:56.644Z,872.00
2023-04-01T03:10:57.315Z,873.00
2023-04-01T03:11:56.623Z,879.00
2023-04-01T03:12:56.616Z,876.00
2023-04-01T03:13:56.629Z,877.00
2023-04-01T03:14:56.580Z,880.00
2023-04-01T03:15:56.597Z,877.00
2023-04-01T03:16:56.600Z,872.00
2023-04-01T03:17:56.595Z,880.00
2023-04-01T03:18:56.552Z,865.00
2023-04-01T03:19:56.540Z,871.00
2023-04-01T03:20:56.532Z,868.00
2023-04-01T03:21:56.507Z,870.00
2023-04-01T03:22:56.515Z,868.00
2023-04-01T03:23:56.472Z,872.00
2023-04-01T03:24:56.474Z,864.00
2023-04-01T03:25:56.468Z,844.00
2023-04-01T03:26:56.444Z,878.00
2023-04-01T03:27:56.447Z,873.00
2023-04-01T03:28:56.435Z,882.00
2023-04-01T03:29:56.481Z,863.00
2023-04-01T03:30:56.552Z,872.00
2023-04-01T03:31:56.655Z,870.00
2023-04-01T03:32:56.549Z,872.00
2023-04-01T03:33:56.534Z,876.00
2023-04-01T03:34:56.531Z,879.00
2023-04-01T03:35:56.574Z,867.00
2023-04-01T03:36:56.556Z,866.00
2023-04-01T03:37:56.551Z,868.00
2023-04-01T03:38:56.578Z,888.00
2023-04-01T03:39:56.598Z,874.00
2023-04-01T03:40:56.605Z,875.00
2023-04-01T03:41:56.588Z,875.00
2023-04-01T03:42:56.592Z,870.00
2023-04-01T03:43:56.574Z,876.00
2023-04-01T03:44:56.541Z,864.00
2023-04-01T03:45:56.551Z,871.00
2023-04-01T03:46:56.520Z,864.00
2023-04-01T03:47:56.595Z,868.00
2023-04-01T03:48:56.484Z,865.00
2023-04-01T03:49:56.480Z,863.00
2023-04-01T03:50:56.461Z,861.00
2023-04-01T03:51:56.460Z,857.00
2023-04-01T03:52:56.452Z,850.00
2023-04-01T03:53:56.425Z,863.00
2023-04-01T03:54:56.392Z,849.00
2023-04-01T03:55:56.394Z,852.00
2023-04-01T03:56:56.407Z,836.00
2023-04-01T03:57:56.352Z,836.00
2023-04-01T03:58:56.361Z,847.00
2023-04-01T03:59:56.364Z,836.00
2023-04-01T04:00:56.342Z,822.00
2023-04-01T04:01:56.389Z,824.00
2023-04-01T04:02:56.415Z,837.00
2023-04-01T04:03:56.357Z,837.00
2023-04-01T04:04:56.284Z,837.00
2023-04-01T04:05:56.272Z,840.00
2023-04-01T04:06:56.277Z,839.00
2023-04-01T04:07:56.255Z,849.00
2023-04-01T04:08:56.213Z,849.00
2023-04-01T04:09:56.230Z,857.00
2023-04-01T04:10:56.188Z,853.00
2023-04-01T04:11:56.194Z,859.00
2023-04-01T04:12:56.188Z,835.00
2023-04-01T04:13:57.320Z,845.00
2023-04-01T04:14:56.153Z,841.00
2023-04-01T04:15:56.144Z,841.00
2023-04-01T04:16:56.095Z,850.00
2023-04-01T04:17:56.122Z,851.00
2023-04-01T04:18:56.065Z,852.00
2023-04-01T04:19:56.035Z,848.00
2023-04-01T04:20:56.022Z,858.00
2023-04-01T04:21:56.019Z,859.00
2023-04-01T04:22:56.001Z,853.00
2023-04-01T04:23:55.975Z,849.00
2023-04-01T04:24:55.971Z,846.00
2023-04-01T04:25:55.960Z,838.00
2023-04-01T04:26:55.955Z,853.00
2023-04-01T04:27:55.935Z,844.00
2023-04-01T04:28:55.916Z,854.00
2023-04-01T04:29:55.914Z,846.00
2023-04-01T04:30:55.921Z,846.00
2023-04-01T04:31:55.961Z,840.00
2023-04-01T04:32:55.880Z,850.00
2023-04-01T04:33:55.904Z,856.00
2023-04-01T04:34:55.928Z,852.00
2023-04-01T04:35:55.931Z,852.00
2023-04-01T04:36:55.933Z,858.00
2023-04-01T04:37:55.935Z,857.00
2023-04-01T04:38:55.943Z,863.00
2023-04-01T04:39:55.956Z,853.00
2023-04-01T04:40:55.966Z,850.00
2023-04-01T04:41:55.987Z,842.00
2023-04-01T04:42:56.000Z,864.00
2023-04-01T04:43:56.037Z,865.00
2023-04-01T04:44:56.020Z,857.00
2023-04-01T04:45:56.054Z,851.00
2023-04-01T04:46:58.311Z,872.00
2023-04-01T04:47:56.188Z,869.00
2023-04-01T04:48:56.171Z,865.00
2023-04-01T04:49:56.182Z,858.00
2023-04-01T04:50:56.208Z,870.00
2023-04-01T04:51:56.201Z,858.00
2023-04-01T04:52:56.183Z,859.00
2023-04-01T04:53:56.229Z,860.00
2023-04-01T04:54:56.162Z,862.00
2023-04-01T04:55:56.161Z,866.00
2023-04-01T04:56:56.228Z,863.00
2023-04-01T04:57:56.133Z,865.00
2023-04-01T04:58:56.120Z,859.00
2023-04-01T04:59:56.106Z,868.00
2023-04-01T05:00:56.129Z,862.00
2023-04-01T05:01:56.084Z,871.00
2023-04-01T05:02:56.160Z,857.00
2023-04-01T05:03:56.061Z,862.00
2023-04-01T05:04:56.044Z,860.00
2023-04-01T05:05:56.030Z,878.00
2023-04-01T05:06:56.031Z,862.00
2023-04-01T05:07:56.023Z,875.00
2023-04-01T05:08:55.998Z,875.00
2023-04-01T05:09:56.002Z,876.00
2023-04-01T05:10:55.986Z,864.00
2023-04-01T05:11:55.948Z,859.00
2023-04-01T05:12:55.932Z,868.00
2023-04-01T05:13:55.923Z,861.00
2023-04-01T05:14:55.907Z,858.00
2023-04-01T05:15:55.918Z,867.00
2023-04-01T05:16:55.985Z,840.00
2023-04-01T05:17:56.006Z,859.00
2023-04-01T05:18:56.064Z,860.00
2023-04-01T05:19:56.101Z,859.00
2023-04-01T05:20:56.167Z,860.00
2023-04-01T05:21:56.223Z,859.00
2023-04-01T05:22:56.270Z,861.00
2023-04-01T05:23:56.305Z,856.00
2023-04-01T05:24:56.361Z,853.00
2023-04-01T05:25:56.348Z,853.00
2023-04-01T05:26:57.117Z,856.00
2023-04-01T05:27:56.325Z,854.00
2023-04-01T05:28:56.314Z,854.00
2023-04-01T05:29:56.290Z,855.00
2023-04-01T05:30:56.338Z,860.00
2023-04-01T05:31:56.298Z,858.00
2023-04-01T05:32:56.300Z,872.00
2023-04-01T05:33:56.264Z,862.00
2023-04-01T05:34:56.253Z,863.00
2023-04-01T05:35:56.275Z,862.00
2023-04-01T05:36:56.229Z,860.00
2023-04-01T05:37:56.212Z,858.00
2023-04-01T05:38:56.197Z,862.00
2023-04-01T05:39:56.191Z,869.00
2023-04-01T05:40:56.173Z,862.00
2023-04-01T05:41:56.166Z,871.00
2023-04-01T05:42:56.165Z,870.00
2023-04-01T05:43:56.135Z,855.00
2023-04-01T05:44:56.130Z,858.00
2023-04-01T05:45:56.149Z,864.00
2023-04-01T05:46:56.144Z,862.00
2023-04-01T05:47:56.142Z,860.00
2023-04-01T05:48:56.092Z,855.00
2023-04-01T05:49:56.080Z,871.00
2023-04-01T05:50:56.063Z,853.00
2023-04-01T05:51:56.070Z,859.00
2023-04-01T05:52:56.055Z,858.00
2023-04-01T05:53:56.054Z,860.00
2023-04-01T05:54:56.078Z,866.00
2023-04-01T05:55:56.081Z,862.00
2023-04-01T05:56:56.124Z,863.00
2023-04-01T05:57:56.068Z,861.00
2023-04-01T05:58:56.089Z,864.00
2023-04-01T05:59:56.022Z,871.00
2023-04-01T06:01:08.051Z,868.00
2023-04-01T06:01:58.822Z,863.00
2023-04-01T06:02:56.080Z,863.00
2023-04-01T06:03:56.179Z,866.00
2023-04-01T06:04:56.064Z,864.00
2023-04-01T06:05:55.942Z,869.00
2023-04-01T06:06:55.929Z,872.00
2023-04-01T06:07:55.917Z,871.00
2023-04-01T06:08:55.911Z,869.00
2023-04-01T06:09:55.894Z,873.00
2023-04-01T06:10:55.886Z,865.00
2023-04-01T06:11:55.883Z,860.00
2023-04-01T06:12:55.851Z,861.00
2023-04-01T06:13:55.838Z,855.00
2023-04-01T06:14:55.836Z,862.00
2023-04-01T06:15:55.828Z,866.00
2023-04-01T06:16:55.812Z,867.00
2023-04-01T06:17:55.835Z,869.00
2023-04-01T06:18:55.793Z,857.00
2023-04-01T06:19:55.762Z,859.00
2023-04-01T06:20:55.754Z,860.00
2023-04-01T06:21:55.749Z,859.00
2023-04-01T06:22:55.755Z,867.00
2023-04-01T06:23:55.723Z,864.00
2023-04-01T06:24:55.699Z,858.00
2023-04-01T06:25:55.681Z,853.00
2023-04-01T06:26:55.709Z,861.00
2023-04-01T06:27:55.651Z,850.00
2023-04-01T06:28:55.668Z,852.00
2023-04-01T06:29:55.618Z,848.00
2023-04-01T06:30:55.629Z,859.00
2023-04-01T06:31:55.665Z,856.00
2023-04-01T06:32:55.681Z,862.00
2023-04-01T06:33:55.589Z,864.00
2023-04-01T06:34:55.575Z,842.00
2023-04-01T06:35:55.638Z,866.00
2023-04-01T06:36:55.552Z,858.00
2023-04-01T06:37:55.586Z,861.00
2023-04-01T06:38:55.532Z,860.00
2023-04-01T06:39:55.551Z,861.00
2023-04-01T06:40:55.495Z,860.00
2023-04-01T06:41:55.472Z,852.00
2023-04-01T06:42:55.477Z,855.00
2023-04-01T06:43:55.464Z,857.00
2023-04-01T06:44:55.448Z,860.00
2023-04-01T06:45:55.438Z,852.00
2023-04-01T06:46:55.437Z,863.00
2023-04-01T06:47:55.504Z,865.00
2023-04-01T06:48:55.382Z,863.00
2023-04-01T06:49:55.442Z,868.00
2023-04-01T06:50:55.348Z,868.00
2023-04-01T06:51:55.341Z,868.00
2023-04-01T06:52:55.319Z,868.00
2023-04-01T06:53:55.306Z,856.00
2023-04-01T06:54:55.292Z,855.00
2023-04-01T06:55:55.276Z,854.00
2023-04-01T06:56:55.263Z,867.00
2023-04-01T06:57:55.245Z,864.00
2023-04-01T06:58:55.230Z,855.00
2023-04-01T06:59:55.214Z,867.00
2023-04-01T07:00:55.205Z,856.00
2023-04-01T07:01:55.190Z,854.00
2023-04-01T07:02:55.293Z,852.00
2023-04-01T07:03:55.165Z,861.00
2023-04-01T07:04:55.131Z,860.00
2023-04-01T07:05:55.133Z,858.00
2023-04-01T07:06:55.113Z,865.00
2023-04-01T07:07:55.108Z,856.00
2023-04-01T07:08:55.075Z,855.00
2023-04-01T07:09:55.047Z,849.00
2023-04-01T07:10:55.224Z,862.00
2023-04-01T07:11:55.045Z,870.00
2023-04-01T07:12:55.072Z,859.00
2023-04-01T07:13:55.140Z,856.00
2023-04-01T07:14:55.104Z,859.00
2023-04-01T07:15:56.089Z,845.00
2023-04-01T07:16:55.157Z,855.00
2023-04-01T07:17:55.199Z,838.00
2023-04-01T07:18:55.152Z,839.00
2023-04-01T07:19:55.165Z,820.00
2023-04-01T07:20:55.946Z,842.00
2023-04-01T07:21:55.176Z,825.00
2023-04-01T07:22:55.176Z,836.00
2023-04-01T07:23:55.188Z,833.00
2023-04-01T07:24:55.190Z,856.00
2023-04-01T07:25:55.192Z,850.00
2023-04-01T07:26:55.201Z,835.00
2023-04-01T07:27:55.192Z,830.00
2023-04-01T07:28:55.181Z,831.00
2023-04-01T07:29:55.162Z,833.00
2023-04-01T07:30:55.167Z,833.00
2023-04-01T07:31:55.130Z,839.00
2023-04-01T07:32:55.132Z,849.00
2023-04-01T07:33:55.094Z,838.00
2023-04-01T07:34:55.060Z,831.00
2023-04-01T07:35:55.092Z,843.00
2023-04-01T07:36:55.035Z,851.00
2023-04-01T07:37:55.067Z,861.00
2023-04-01T07:38:54.997Z,841.00
2023-04-01T07:39:54.986Z,862.00
2023-04-01T07:40:54.954Z,842.00
2023-04-01T07:41:54.936Z,837.00
2023-04-01T07:42:54.914Z,853.00
2023-04-01T07:43:54.919Z,844.00
2023-04-01T07:44:54.884Z,834.00
2023-04-01T07:45:54.890Z,835.00
2023-04-01T07:46:54.837Z,837.00
2023-04-01T07:47:54.973Z,839.00
2023-04-01T07:48:54.806Z,847.00
2023-04-01T07:49:54.773Z,842.00
2023-04-01T07:50:54.763Z,839.00
2023-04-01T07:51:54.744Z,820.00
2023-04-01T07:52:54.743Z,827.00
2023-04-01T07:53:54.732Z,821.00
2023-04-01T07:54:54.698Z,834.00
2023-04-01T07:55:54.675Z,820.00
2023-04-01T07:56:54.675Z,822.00
2023-04-01T07:57:54.638Z,799.00
2023-04-01T07:58:54.636Z,796.00
2023-04-01T07:59:54.590Z,790.00
2023-04-01T08:00:54.581Z,788.00
2023-04-01T08:01:54.544Z,798.00
2023-04-01T08:02:54.583Z,798.00
2023-04-01T08:03:54.602Z,789.00
2023-04-01T08:04:54.502Z,787.00
2023-04-01T08:05:54.473Z,771.00
2023-04-01T08:06:54.454Z,818.00
2023-04-01T08:07:54.440Z,805.00
2023-04-01T08:08:54.415Z,789.00
2023-04-01T08:09:54.390Z,805.00
2023-04-01T08:10:54.372Z,819.00
2023-04-01T08:11:54.363Z,814.00
2023-04-01T08:12:54.342Z,830.00
2023-04-01T08:13:54.298Z,831.00
2023-04-01T08:14:54.285Z,841.00
2023-04-01T08:15:54.292Z,838.00
2023-04-01T08:16:54.736Z,846.00
2023-04-01T08:17:54.243Z,840.00
2023-04-01T08:18:54.240Z,835.00
2023-04-01T08:19:54.168Z,830.00
2023-04-01T08:20:54.161Z,837.00
2023-04-01T08:21:54.144Z,837.00
2023-04-01T08:22:54.105Z,840.00
2023-04-01T08:23:54.091Z,826.00
2023-04-01T08:24:54.056Z,838.00
2023-04-01T08:25:54.076Z,833.00
2023-04-01T08:26:54.007Z,825.00
2023-04-01T08:27:53.989Z,831.00
2023-04-01T08:28:54.024Z,815.00
2023-04-01T08:29:53.959Z,828.00
2023-04-01T08:30:53.994Z,833.00
2023-04-01T08:31:54.059Z,834.00
2023-04-01T08:32:54.033Z,829.00
2023-04-01T08:33:53.963Z,814.00
2023-04-01T08:34:54.030Z,808.00
2023-04-01T08:35:54.002Z,815.00
2023-04-01T08:36:53.990Z,817.00
2023-04-01T08:37:53.971Z,811.00
2023-04-01T08:38:53.999Z,823.00
2023-04-01T08:39:53.993Z,811.00
2023-04-01T08:40:54.071Z,814.00
2023-04-01T08:41:53.987Z,796.00
2023-04-01T08:42:54.008Z,802.00
2023-04-01T08:43:54.061Z,779.00
2023-04-01T08:44:54.105Z,788.00
2023-04-01T08:45:54.199Z,782.00
2023-04-01T08:46:54.142Z,774.00
2023-04-01T08:47:54.294Z,778.00
2023-04-01T08:48:54.213Z,765.00
2023-04-01T08:49:54.246Z,756.00
2023-04-01T08:50:54.289Z,756.00
2023-04-01T08:51:54.299Z,750.00
2023-04-01T08:52:54.322Z,756.00
2023-04-01T08:53:54.337Z,738.00
2023-04-01T08:54:54.388Z,734.00
2023-04-01T08:55:54.395Z,738.00
2023-04-01T08:56:54.442Z,732.00
2023-04-01T08:57:55.412Z,732.00
2023-04-01T08:58:54.500Z,716.00
2023-04-01T08:59:54.533Z,727.00
2023-04-01T09:00:54.544Z,720.00
2023-04-01T09:01:54.551Z,716.00
2023-04-01T09:02:54.628Z,702.00
2023-04-01T09:03:54.701Z,702.00
2023-04-01T09:04:54.612Z,666.00
2023-04-01T09:05:54.618Z,656.00
2023-04-01T09:06:54.655Z,645.00
2023-04-01T09:07:54.632Z,640.00
2023-04-01T09:08:54.652Z,639.00
2023-04-01T09:09:54.661Z,639.00
2023-04-01T09:10:54.655Z,648.00
2023-04-01T09:11:54.681Z,644.00
2023-04-01T09:12:54.643Z,648.00
2023-04-01T09:13:54.696Z,651.00
2023-04-01T09:14:54.701Z,645.00
2023-04-01T09:15:54.746Z,641.00
2023-04-01T09:16:54.704Z,636.00
2023-04-01T09:17:54.759Z,644.00
2023-04-01T09:18:54.746Z,642.00
2023-04-01T09:19:54.801Z,643.00
2023-04-01T09:20:54.772Z,646.00
2023-04-01T09:21:54.803Z,647.00
2023-04-01T09:22:54.793Z,645.00
2023-04-01T09:23:54.791Z,649.00
2023-04-01T09:24:54.793Z,647.00
2023-04-01T09:25:54.838Z,640.00
2023-04-01T09:26:54.886Z,641.00
2023-04-01T09:27:54.905Z,639.00
2023-04-01T09:28:54.951Z,646.00
2023-04-01T09:29:54.997Z,642.00
2023-04-01T09:30:55.046Z,634.00
2023-04-01T09:31:55.143Z,631.00
2023-04-01T09:32:55.124Z,630.00
2023-04-01T09:33:55.146Z,629.00
2023-04-01T09:34:55.186Z,635.00
2023-04-01T09:35:55.245Z,634.00
2023-04-01T09:36:55.247Z,636.00
2023-04-01T09:37:55.289Z,630.00
2023-04-01T09:38:55.322Z,630.00
2023-04-01T09:39:55.357Z,630.00
2023-04-01T09:40:55.401Z,629.00
2023-04-01T09:41:55.449Z,632.00
2023-04-01T09:42:55.520Z,629.00
2023-04-01T09:43:55.523Z,629.00
2023-04-01T09:44:55.543Z,626.00
2023-04-01T09:45:55.619Z,627.00
2023-04-01T09:46:55.628Z,624.00
2023-04-01T09:47:55.739Z,622.00
2023-04-01T09:48:55.730Z,620.00
2023-04-01T09:49:55.763Z,621.00
2023-04-01T09:50:55.801Z,619.00
2023-04-01T09:51:55.842Z,616.00
2023-04-01T09:52:55.877Z,611.00
2023-04-01T09:53:55.910Z,608.00
2023-04-01T09:54:55.962Z,612.00
2023-04-01T09:55:56.005Z,610.00
2023-04-01T09:56:56.095Z,613.00
2023-04-01T09:57:56.016Z,608.00
2023-04-01T09:58:56.020Z,603.00
2023-04-01T09:59:56.086Z,595.00
2023-04-01T10:00:56.091Z,593.00
2023-04-01T10:01:56.168Z,589.00
2023-04-01T10:02:56.201Z,591.00
2023-04-01T10:03:56.192Z,589.00
2023-04-01T10:04:56.263Z,583.00
2023-04-01T10:05:56.307Z,579.00
2023-04-01T10:06:56.292Z,584.00
2023-04-01T10:07:56.314Z,580.00
2023-04-01T10:08:56.339Z,580.00
2023-04-01T10:09:56.376Z,573.00
2023-04-01T10:10:56.378Z,573.00
2023-04-01T10:11:56.414Z,573.00
2023-04-01T10:12:56.444Z,576.00
2023-04-01T10:13:56.467Z,567.00
2023-04-01T10:14:56.484Z,568.00
2023-04-01T10:15:56.549Z,562.00
2023-04-01T10:16:56.538Z,562.00
2023-04-01T10:17:56.592Z,570.00
2023-04-01T10:18:56.605Z,567.00
2023-04-01T10:19:56.600Z,566.00
2023-04-01T10:20:56.628Z,563.00
2023-04-01T10:21:56.645Z,557.00
2023-04-01T10:22:56.666Z,548.00
2023-04-01T10:23:56.639Z,549.00
2023-04-01T10:24:56.608Z,550.00
2023-04-01T10:25:56.588Z,553.00
2023-04-01T10:26:56.587Z,547.00
2023-04-01T10:27:56.544Z,550.00
2023-04-01T10:28:56.517Z,552.00
2023-04-01T10:29:56.475Z,549.00
2023-04-01T10:30:56.451Z,550.00
2023-04-01T10:31:56.472Z,550.00
2023-04-01T10:32:56.513Z,543.00
2023-04-01T10:33:56.354Z,544.00
2023-04-01T10:34:56.343Z,540.00
2023-04-01T10:35:56.406Z,536.00
2023-04-01T10:36:56.420Z,534.00
2023-04-01T10:37:56.513Z,532.00
2023-04-01T10:38:56.444Z,533.00
2023-04-01T10:39:56.464Z,532.00
2023-04-01T10:40:56.499Z,531.00
2023-04-01T10:41:56.502Z,527.00
2023-04-01T10:42:56.520Z,528.00
2023-04-01T10:43:56.568Z,523.00
2023-04-01T10:44:56.603Z,522.00
2023-04-01T10:45:56.615Z,522.00
2023-04-01T10:46:56.649Z,515.00
2023-04-01T10:47:56.685Z,510.00
2023-04-01T10:48:56.671Z,516.00
2023-04-01T10:49:56.714Z,516.00
2023-04-01T10:50:56.739Z,521.00
2023-04-01T10:51:56.712Z,516.00
2023-04-01T10:52:56.729Z,508.00
2023-04-01T10:53:56.735Z,506.00
2023-04-01T10:54:56.741Z,504.00
2023-04-01T10:55:56.767Z,504.00
2023-04-01T10:56:56.827Z,507.00
2023-04-01T10:57:56.806Z,509.00
2023-04-01T10:58:56.821Z,514.00
2023-04-01T10:59:56.843Z,510.00
2023-04-01T11:00:56.890Z,510.00
2023-04-01T11:02:10.171Z,511.00
2023-04-01T11:02:57.927Z,511.00
2023-04-01T11:03:56.928Z,512.00
2023-04-01T11:04:56.784Z,511.00
2023-04-01T11:05:56.793Z,513.00
2023-04-01T11:06:56.764Z,514.00
2023-04-01T11:08:05.878Z,515.00
2023-04-01T11:08:56.647Z,512.00
2023-04-01T11:09:56.627Z,513.00
2023-04-01T11:10:56.641Z,515.00
2023-04-01T11:11:56.585Z,525.00
2023-04-01T11:12:56.708Z,520.00
2023-04-01T11:13:56.510Z,529.00
2023-04-01T11:14:56.496Z,528.00
2023-04-01T11:15:56.512Z,531.00
2023-04-01T11:16:56.430Z,527.00
2023-04-01T11:17:56.450Z,518.00
2023-04-01T11:18:56.370Z,521.00
2023-04-01T11:19:56.334Z,528.00
2023-04-01T11:20:56.284Z,523.00
2023-04-01T11:21:56.264Z,530.00
2023-04-01T11:22:56.229Z,531.00
2023-04-01T11:24:57.217Z,534.00
2023-04-01T11:25:56.197Z,534.00
2023-04-01T11:26:56.201Z,534.00
2023-04-01T11:27:56.172Z,534.00
2023-04-01T11:28:56.083Z,528.00
2023-04-01T11:30:00.182Z,531.00
2023-04-01T11:30:56.066Z,531.00
2023-04-01T11:31:56.058Z,526.00
2023-04-01T11:32:56.084Z,525.00
2023-04-01T11:33:55.982Z,534.00
2023-04-01T11:34:55.914Z,532.00
2023-04-01T11:35:55.885Z,534.00
2023-04-01T11:36:55.902Z,529.00
2023-04-01T11:37:55.843Z,526.00
2023-04-01T11:38:55.814Z,526.00
2023-04-01T11:39:58.096Z,524.00
2023-04-01T11:40:55.843Z,516.00
2023-04-01T11:41:55.852Z,521.00
2023-04-01T11:42:55.864Z,518.00
2023-04-01T11:43:55.887Z,516.00
2023-04-01T11:44:55.887Z,511.00
2023-04-01T11:45:55.930Z,500.00
2023-04-01T11:46:55.936Z,504.00
2023-04-01T11:47:56.066Z,507.00
2023-04-01T11:48:56.022Z,500.00
2023-04-01T11:49:55.976Z,501.00
2023-04-01T11:50:56.001Z,502.00
2023-04-01T11:51:56.031Z,503.00
2023-04-01T11:52:56.046Z,501.00
2023-04-01T11:53:56.052Z,503.00
2023-04-01T11:54:56.083Z,501.00
2023-04-01T11:55:56.106Z,500.00
2023-04-01T11:56:56.143Z,510.00
2023-04-01T11:57:56.127Z,514.00
2023-04-01T11:58:56.159Z,509.00
2023-04-01T11:59:56.233Z,500.00
2023-04-01T12:00:56.222Z,500.00
2023-04-01T12:01:56.215Z,499.00
2023-04-01T12:02:56.277Z,492.00
2023-04-01T12:03:57.277Z,483.00
2023-04-01T12:04:56.248Z,451.00
2023-04-01T12:05:56.074Z,446.00
2023-04-01T12:06:56.037Z,438.00
2023-04-01T12:07:56.041Z,479.00
2023-04-01T12:08:55.986Z,500.00
2023-04-01T12:09:55.951Z,499.00
2023-04-01T12:10:55.925Z,500.00
2023-04-01T12:11:55.909Z,500.00
2023-04-01T12:13:01.300Z,502.00
2023-04-01T12:13:56.844Z,502.00
2023-04-01T12:14:55.819Z,496.00
2023-04-01T12:15:55.810Z,482.00
2023-04-01T12:16:55.768Z,472.00
2023-04-01T12:17:55.789Z,472.00
2023-04-01T12:18:55.721Z,502.00
2023-04-01T12:19:55.703Z,511.00
2023-04-01T12:20:55.670Z,500.00
2023-04-01T12:21:55.720Z,512.00
2023-04-01T12:22:55.618Z,510.00
2023-04-01T12:23:55.600Z,500.00
2023-04-01T12:24:55.619Z,501.00
2023-04-01T12:25:55.543Z,505.00
2023-04-01T12:26:55.558Z,501.00
2023-04-01T12:27:55.560Z,501.00
2023-04-01T12:28:55.592Z,500.00
2023-04-01T12:29:55.609Z,507.00